RYR7SV LCPH-LROP
Flight info
| Callsign | RYR7SV |
|---|---|
| Flight time | 1h 46m |
| Altitude | 36000 |
| Route | GENOS PEDER A16 TOMBI UA16 AYT UQ23 OSVEL UL619 MAKOL L602 KOMAN L622 OBUGA |
| Aircraft | B738/M-VGDW/C |
Departure
| Time | 2026-04-23 15:00 |
|---|---|
| Airport | Paphos International Airport (LCPH) |
Arrival
| Time | 2026-04-23 16:46 |
|---|---|
| Airport | Bucharest Henri Coandă International Airport (LROP) |
| Time | Latitude | Longitude | Altitude | Speed | Heading |
|---|---|---|---|---|---|
| 2026-04-23 13:47 | 34.71282 | 32.48368 | 24 ft | 0 kts | 200° |
| 2026-04-23 14:49 | 34.71293 | 32.48373 | 24 ft | 2 kts | 200° |
| 2026-04-23 14:49 | 34.71307 | 32.48380 | 25 ft | 2 kts | 201° |
| 2026-04-23 14:49 | 34.71321 | 32.48386 | 25 ft | 2 kts | 201° |
| 2026-04-23 14:49 | 34.71335 | 32.48392 | 26 ft | 2 kts | 201° |
| 2026-04-23 14:50 | 34.71349 | 32.48399 | 27 ft | 2 kts | 200° |
| 2026-04-23 14:50 | 34.71358 | 32.48403 | 27 ft | 1 kts | 191° |
| 2026-04-23 14:50 | 34.71371 | 32.48399 | 28 ft | 2 kts | 133° |
| 2026-04-23 14:50 | 34.71375 | 32.48391 | 28 ft | 0 kts | 104° |
| 2026-04-23 14:51 | 34.71377 | 32.48384 | 28 ft | 0 kts | 110° |
| 2026-04-23 14:53 | 34.71373 | 32.48397 | 28 ft | 4 kts | 110° |
| 2026-04-23 14:53 | 34.71355 | 32.48450 | 28 ft | 8 kts | 111° |
| 2026-04-23 14:53 | 34.71347 | 32.48515 | 28 ft | 7 kts | 72° |
| 2026-04-23 14:53 | 34.71378 | 32.48598 | 30 ft | 14 kts | 65° |
| 2026-04-23 14:54 | 34.71426 | 32.48726 | 30 ft | 17 kts | 64° |
| 2026-04-23 14:54 | 34.71470 | 32.48842 | 33 ft | 12 kts | 64° |
| 2026-04-23 14:54 | 34.71502 | 32.48924 | 36 ft | 8 kts | 64° |
| 2026-04-23 14:54 | 34.71540 | 32.48970 | 38 ft | 8 kts | 24° |
| 2026-04-23 14:55 | 34.71568 | 32.48983 | 39 ft | 1 kts | 19° |
| 2026-04-23 14:55 | 34.71584 | 32.48989 | 39 ft | 5 kts | 19° |
| 2026-04-23 14:55 | 34.71630 | 32.49026 | 39 ft | 11 kts | 60° |
| 2026-04-23 14:55 | 34.71615 | 32.49140 | 39 ft | 15 kts | 110° |
| 2026-04-23 14:56 | 34.71579 | 32.49258 | 39 ft | 14 kts | 110° |
| 2026-04-23 14:56 | 34.71547 | 32.49363 | 39 ft | 12 kts | 110° |
| 2026-04-23 14:56 | 34.71542 | 32.49445 | 39 ft | 9 kts | 61° |
| 2026-04-23 14:56 | 34.71590 | 32.49518 | 39 ft | 12 kts | 50° |
| 2026-04-23 14:57 | 34.71634 | 32.49586 | 46 ft | 8 kts | 61° |
| 2026-04-23 14:57 | 34.71631 | 32.49664 | 48 ft | 12 kts | 108° |
| 2026-04-23 14:57 | 34.71595 | 32.49780 | 48 ft | 15 kts | 110° |
| 2026-04-23 14:57 | 34.71560 | 32.49891 | 49 ft | 12 kts | 110° |
| 2026-04-23 14:58 | 34.71517 | 32.49965 | 47 ft | 11 kts | 165° |
| 2026-04-23 14:58 | 34.71446 | 32.49897 | 39 ft | 14 kts | 230° |
| 2026-04-23 14:58 | 34.71411 | 32.49845 | 39 ft | 5 kts | 241° |
| 2026-04-23 14:58 | 34.71413 | 32.49797 | 39 ft | 6 kts | 291° |
| 2026-04-23 14:59 | 34.71427 | 32.49755 | 39 ft | 4 kts | 291° |
| 2026-04-23 14:59 | 34.71446 | 32.49697 | 39 ft | 16 kts | 291° |
| 2026-04-23 14:59 | 34.71566 | 32.49300 | 39 ft | 83 kts | 290° |
| 2026-04-23 14:59 | 34.71840 | 32.48401 | 46 ft | 140 kts | 290° |
| 2026-04-23 15:00 | 34.72217 | 32.47159 | 329 ft | 160 kts | 289° |
| 2026-04-23 15:00 | 34.72575 | 32.45924 | 941 ft | 160 kts | 283° |
| 2026-04-23 15:00 | 34.72558 | 32.44555 | 1469 ft | 167 kts | 253° |
| 2026-04-23 15:00 | 34.72195 | 32.43241 | 2177 ft | 163 kts | 255° |
| 2026-04-23 15:01 | 34.71892 | 32.41900 | 2673 ft | 174 kts | 254° |
| 2026-04-23 15:01 | 34.71540 | 32.40399 | 3075 ft | 193 kts | 254° |
| 2026-04-23 15:01 | 34.71158 | 32.38756 | 3456 ft | 217 kts | 254° |
| 2026-04-23 15:01 | 34.70719 | 32.36870 | 3871 ft | 242 kts | 255° |
| 2026-04-23 15:02 | 34.70251 | 32.34857 | 4454 ft | 257 kts | 255° |
| 2026-04-23 15:02 | 34.69761 | 32.32756 | 5195 ft | 264 kts | 255° |
| 2026-04-23 15:02 | 34.69256 | 32.30594 | 5981 ft | 269 kts | 255° |
| 2026-04-23 15:02 | 34.68752 | 32.28437 | 6802 ft | 272 kts | 255° |
| 2026-04-23 15:03 | 34.68232 | 32.26208 | 7652 ft | 275 kts | 255° |
| 2026-04-23 15:03 | 34.67844 | 32.23963 | 8468 ft | 277 kts | 268° |
| 2026-04-23 15:03 | 34.68184 | 32.21670 | 9294 ft | 280 kts | 291° |
| 2026-04-23 15:03 | 34.68986 | 32.19564 | 10140 ft | 282 kts | 295° |
| 2026-04-23 15:04 | 34.69816 | 32.17359 | 10814 ft | 292 kts | 294° |
| 2026-04-23 15:04 | 34.70658 | 32.15079 | 11440 ft | 304 kts | 294° |
| 2026-04-23 15:04 | 34.71541 | 32.12713 | 12066 ft | 315 kts | 294° |
| 2026-04-23 15:04 | 34.72461 | 32.10249 | 12692 ft | 328 kts | 294° |
| 2026-04-23 15:05 | 34.73413 | 32.07699 | 13339 ft | 339 kts | 294° |
| 2026-04-23 15:05 | 34.74405 | 32.05037 | 14056 ft | 348 kts | 294° |
| 2026-04-23 15:05 | 34.75399 | 32.02371 | 14889 ft | 353 kts | 294° |
| 2026-04-23 15:05 | 34.76412 | 31.99651 | 15775 ft | 356 kts | 294° |
| 2026-04-23 15:06 | 34.77427 | 31.96922 | 16631 ft | 359 kts | 294° |
| 2026-04-23 15:06 | 34.78452 | 31.94164 | 17486 ft | 361 kts | 293° |
| 2026-04-23 15:06 | 34.79482 | 31.91393 | 18289 ft | 364 kts | 293° |
| 2026-04-23 15:06 | 34.80535 | 31.88554 | 19100 ft | 367 kts | 293° |
| 2026-04-23 15:07 | 34.81572 | 31.85758 | 19856 ft | 370 kts | 293° |
| 2026-04-23 15:07 | 34.82630 | 31.82901 | 20608 ft | 372 kts | 293° |
| 2026-04-23 15:07 | 34.83698 | 31.80019 | 21323 ft | 375 kts | 292° |
| 2026-04-23 15:07 | 34.84759 | 31.77148 | 22012 ft | 378 kts | 292° |
| 2026-04-23 15:08 | 34.85833 | 31.74240 | 22688 ft | 380 kts | 292° |
| 2026-04-23 15:08 | 34.86927 | 31.71276 | 23354 ft | 382 kts | 292° |
| 2026-04-23 15:08 | 34.88008 | 31.68346 | 23975 ft | 385 kts | 292° |
| 2026-04-23 15:09 | 34.90211 | 31.62363 | 25033 ft | 394 kts | 292° |
| 2026-04-23 15:09 | 34.91344 | 31.59280 | 25522 ft | 399 kts | 291° |
| 2026-04-23 15:09 | 34.92475 | 31.56203 | 25986 ft | 404 kts | 291° |
| 2026-04-23 15:09 | 34.93628 | 31.53061 | 26443 ft | 409 kts | 291° |
| 2026-04-23 15:10 | 34.94395 | 31.50968 | 26736 ft | 412 kts | 291° |
| 2026-04-23 15:10 | 34.95986 | 31.46671 | 27303 ft | 420 kts | 293° |
| 2026-04-23 15:10 | 34.97596 | 31.43662 | 27626 ft | 433 kts | 308° |
| 2026-04-23 15:10 | 34.99889 | 31.41272 | 27951 ft | 447 kts | 324° |
| 2026-04-23 15:11 | 35.02679 | 31.39519 | 28350 ft | 455 kts | 333° |
| 2026-04-23 15:11 | 35.05571 | 31.37935 | 28753 ft | 459 kts | 333° |
| 2026-04-23 15:11 | 35.08470 | 31.36294 | 29169 ft | 463 kts | 332° |
| 2026-04-23 15:11 | 35.11393 | 31.34613 | 29586 ft | 466 kts | 332° |
| 2026-04-23 15:12 | 35.14315 | 31.32951 | 29982 ft | 469 kts | 332° |
| 2026-04-23 15:12 | 35.17278 | 31.31286 | 30623 ft | 466 kts | 332° |
| 2026-04-23 15:12 | 35.20182 | 31.29659 | 31191 ft | 464 kts | 332° |
| 2026-04-23 15:12 | 35.23110 | 31.28018 | 31714 ft | 463 kts | 332° |
| 2026-04-23 15:13 | 35.26029 | 31.26383 | 32170 ft | 463 kts | 332° |
| 2026-04-23 15:13 | 35.28927 | 31.24762 | 32620 ft | 463 kts | 332° |
| 2026-04-23 15:13 | 35.31850 | 31.23133 | 33025 ft | 463 kts | 332° |
| 2026-04-23 15:13 | 35.34777 | 31.21509 | 33481 ft | 462 kts | 332° |
| 2026-04-23 15:14 | 35.37700 | 31.19885 | 33844 ft | 463 kts | 332° |
| 2026-04-23 15:14 | 35.40622 | 31.18255 | 34211 ft | 463 kts | 332° |
| 2026-04-23 15:14 | 35.43551 | 31.16617 | 34637 ft | 462 kts | 332° |
| 2026-04-23 15:14 | 35.46452 | 31.14990 | 35005 ft | 461 kts | 332° |
| 2026-04-23 15:15 | 35.49338 | 31.13373 | 35420 ft | 459 kts | 332° |
| 2026-04-23 15:15 | 35.52222 | 31.11758 | 35822 ft | 457 kts | 332° |
| 2026-04-23 15:15 | 35.55102 | 31.10142 | 36206 ft | 456 kts | 332° |
| 2026-04-23 15:15 | 35.57976 | 31.08519 | 36515 ft | 455 kts | 332° |
| 2026-04-23 15:16 | 35.60835 | 31.06904 | 36801 ft | 455 kts | 332° |
| 2026-04-23 15:16 | 35.63702 | 31.05287 | 37085 ft | 455 kts | 332° |
| 2026-04-23 15:16 | 35.66592 | 31.03658 | 37353 ft | 455 kts | 332° |
| 2026-04-23 15:16 | 35.69455 | 31.02043 | 37603 ft | 455 kts | 332° |
| 2026-04-23 15:17 | 35.72294 | 31.00441 | 37845 ft | 455 kts | 332° |
| 2026-04-23 15:17 | 35.78062 | 30.97181 | 37886 ft | 460 kts | 332° |
| 2026-04-23 15:18 | 35.83842 | 30.93915 | 37885 ft | 456 kts | 332° |
| 2026-04-23 15:18 | 35.89582 | 30.90665 | 37885 ft | 455 kts | 332° |
| 2026-04-23 15:19 | 35.95311 | 30.87415 | 37885 ft | 456 kts | 332° |
| 2026-04-23 15:19 | 36.01083 | 30.84243 | 37884 ft | 458 kts | 337° |
| 2026-04-23 15:20 | 36.07295 | 30.82415 | 37885 ft | 463 kts | 353° |
| 2026-04-23 15:20 | 36.13712 | 30.82216 | 37885 ft | 465 kts | 356° |
| 2026-04-23 15:21 | 36.20116 | 30.81965 | 37885 ft | 464 kts | 356° |
| 2026-04-23 15:21 | 36.26583 | 30.81722 | 37885 ft | 464 kts | 356° |
| 2026-04-23 15:22 | 36.32996 | 30.81499 | 37885 ft | 465 kts | 356° |
| 2026-04-23 15:22 | 36.39427 | 30.81276 | 37885 ft | 465 kts | 356° |
| 2026-04-23 15:23 | 36.45861 | 30.81055 | 37885 ft | 465 kts | 356° |
| 2026-04-23 15:23 | 36.52287 | 30.80831 | 37885 ft | 464 kts | 356° |
| 2026-04-23 15:24 | 36.58720 | 30.80608 | 37885 ft | 464 kts | 356° |
| 2026-04-23 15:24 | 36.65170 | 30.80384 | 37885 ft | 465 kts | 356° |
| 2026-04-23 15:25 | 36.71617 | 30.80161 | 37885 ft | 465 kts | 356° |
| 2026-04-23 15:25 | 36.78033 | 30.79938 | 37885 ft | 465 kts | 356° |
| 2026-04-23 15:26 | 36.84458 | 30.79715 | 37885 ft | 464 kts | 356° |
| 2026-04-23 15:26 | 36.90898 | 30.79518 | 37884 ft | 465 kts | 358° |
| 2026-04-23 15:27 | 36.97341 | 30.80189 | 37885 ft | 467 kts | 5° |
| 2026-04-23 15:27 | 37.03775 | 30.81133 | 37885 ft | 469 kts | 4° |
| 2026-04-23 15:28 | 37.10257 | 30.82020 | 37885 ft | 472 kts | 4° |
| 2026-04-23 15:28 | 37.16783 | 30.82941 | 37885 ft | 473 kts | 4° |
| 2026-04-23 15:29 | 37.23269 | 30.83856 | 37885 ft | 472 kts | 4° |
| 2026-04-23 15:29 | 37.29755 | 30.84775 | 37885 ft | 472 kts | 4° |
| 2026-04-23 15:30 | 37.36288 | 30.85702 | 37885 ft | 472 kts | 4° |
| 2026-04-23 15:30 | 37.42751 | 30.86622 | 37885 ft | 472 kts | 4° |
| 2026-04-23 15:31 | 37.49276 | 30.87552 | 37892 ft | 472 kts | 4° |
| 2026-04-23 15:31 | 37.55761 | 30.88479 | 37903 ft | 472 kts | 4° |
| 2026-04-23 15:32 | 37.62297 | 30.89414 | 37912 ft | 472 kts | 4° |
| 2026-04-23 15:32 | 37.68776 | 30.90343 | 37912 ft | 472 kts | 4° |
| 2026-04-23 15:33 | 37.75251 | 30.91272 | 37912 ft | 472 kts | 4° |
| 2026-04-23 15:33 | 37.81777 | 30.92212 | 37912 ft | 472 kts | 4° |
| 2026-04-23 15:34 | 37.88286 | 30.93150 | 37912 ft | 472 kts | 4° |
| 2026-04-23 15:34 | 37.94754 | 30.94083 | 37912 ft | 472 kts | 4° |
| 2026-04-23 15:35 | 38.01253 | 30.95023 | 37912 ft | 472 kts | 4° |
| 2026-04-23 15:35 | 38.07753 | 30.95965 | 37912 ft | 472 kts | 4° |
| 2026-04-23 15:36 | 38.14241 | 30.96907 | 37912 ft | 472 kts | 4° |
| 2026-04-23 15:36 | 38.20775 | 30.97858 | 37912 ft | 472 kts | 4° |
| 2026-04-23 15:37 | 38.27097 | 30.98778 | 37912 ft | 472 kts | 4° |
| 2026-04-23 15:37 | 38.33609 | 30.99729 | 37912 ft | 472 kts | 4° |
| 2026-04-23 15:38 | 38.40083 | 31.00676 | 37912 ft | 472 kts | 4° |
| 2026-04-23 15:38 | 38.46587 | 31.01263 | 37911 ft | 468 kts | 354° |
| 2026-04-23 15:39 | 38.52858 | 30.99607 | 37914 ft | 459 kts | 336° |
| 2026-04-23 15:39 | 38.58756 | 30.96693 | 37912 ft | 459 kts | 335° |
| 2026-04-23 15:40 | 38.64714 | 30.93894 | 37912 ft | 458 kts | 335° |
| 2026-04-23 15:40 | 38.70666 | 30.91050 | 37912 ft | 458 kts | 335° |
| 2026-04-23 15:41 | 38.76575 | 30.88212 | 37924 ft | 458 kts | 335° |
| 2026-04-23 15:41 | 38.82534 | 30.85341 | 37944 ft | 458 kts | 335° |
| 2026-04-23 15:42 | 38.88466 | 30.82475 | 37964 ft | 458 kts | 335° |
| 2026-04-23 15:42 | 38.94423 | 30.79591 | 37966 ft | 458 kts | 335° |
| 2026-04-23 15:43 | 39.00341 | 30.76719 | 37966 ft | 456 kts | 335° |
| 2026-04-23 15:43 | 39.06268 | 30.73836 | 37966 ft | 456 kts | 335° |
| 2026-04-23 15:44 | 39.12159 | 30.70966 | 37966 ft | 455 kts | 335° |
| 2026-04-23 15:44 | 39.18063 | 30.68084 | 37966 ft | 455 kts | 335° |
| 2026-04-23 15:45 | 39.23983 | 30.65190 | 37966 ft | 456 kts | 335° |
| 2026-04-23 15:45 | 39.29874 | 30.62303 | 37966 ft | 456 kts | 335° |
| 2026-04-23 15:46 | 39.35785 | 30.59402 | 37966 ft | 456 kts | 335° |
| 2026-04-23 15:46 | 39.41698 | 30.56496 | 37966 ft | 456 kts | 335° |
| 2026-04-23 15:47 | 39.47585 | 30.53596 | 37966 ft | 455 kts | 335° |
| 2026-04-23 15:47 | 39.53492 | 30.50680 | 37966 ft | 456 kts | 335° |
| 2026-04-23 15:48 | 39.59278 | 30.47550 | 37966 ft | 453 kts | 331° |
| 2026-04-23 15:48 | 39.64997 | 30.44127 | 37966 ft | 454 kts | 332° |
| 2026-04-23 15:49 | 39.70737 | 30.40776 | 37966 ft | 454 kts | 332° |
| 2026-04-23 15:49 | 39.76474 | 30.37416 | 37966 ft | 454 kts | 332° |
| 2026-04-23 15:50 | 39.82190 | 30.34066 | 37966 ft | 454 kts | 331° |
| 2026-04-23 15:50 | 39.87924 | 30.30704 | 37966 ft | 454 kts | 331° |
| 2026-04-23 15:51 | 39.93671 | 30.27329 | 37966 ft | 454 kts | 331° |
| 2026-04-23 15:51 | 39.99401 | 30.23958 | 37966 ft | 453 kts | 331° |
| 2026-04-23 15:52 | 40.05107 | 30.20596 | 37966 ft | 453 kts | 331° |
| 2026-04-23 15:52 | 40.10857 | 30.17201 | 37966 ft | 453 kts | 331° |
| 2026-04-23 15:53 | 40.16578 | 30.13818 | 37966 ft | 453 kts | 331° |
| 2026-04-23 15:53 | 40.22289 | 30.10434 | 37975 ft | 453 kts | 331° |
| 2026-04-23 15:54 | 40.28026 | 30.07028 | 37985 ft | 453 kts | 331° |
| 2026-04-23 15:54 | 40.33757 | 30.03619 | 37993 ft | 454 kts | 331° |
| 2026-04-23 15:55 | 40.39475 | 30.00213 | 37993 ft | 454 kts | 331° |
| 2026-04-23 15:55 | 40.45195 | 29.96799 | 37990 ft | 454 kts | 331° |
| 2026-04-23 15:56 | 40.50888 | 29.93394 | 37987 ft | 454 kts | 331° |
| 2026-04-23 15:56 | 40.56636 | 29.89950 | 37987 ft | 453 kts | 331° |
| 2026-04-23 15:57 | 40.62322 | 29.86536 | 37990 ft | 453 kts | 331° |
| 2026-04-23 15:57 | 40.68040 | 29.83097 | 37993 ft | 453 kts | 331° |
| 2026-04-23 15:58 | 40.73752 | 29.79656 | 37993 ft | 454 kts | 331° |
| 2026-04-23 15:58 | 40.79497 | 29.76187 | 37993 ft | 453 kts | 331° |
| 2026-04-23 15:59 | 40.85199 | 29.72739 | 37993 ft | 453 kts | 331° |
| 2026-04-23 15:59 | 40.90919 | 29.69272 | 37993 ft | 454 kts | 331° |
| 2026-04-23 16:00 | 40.96640 | 29.65798 | 37993 ft | 453 kts | 331° |
| 2026-04-23 16:00 | 41.02335 | 29.62334 | 37993 ft | 453 kts | 331° |
| 2026-04-23 16:01 | 41.08054 | 29.58848 | 37993 ft | 453 kts | 331° |
| 2026-04-23 16:01 | 41.13734 | 29.55380 | 37993 ft | 453 kts | 331° |
| 2026-04-23 16:02 | 41.19505 | 29.51979 | 37992 ft | 455 kts | 336° |
| 2026-04-23 16:02 | 41.25567 | 29.49552 | 37993 ft | 459 kts | 341° |
| 2026-04-23 16:03 | 41.31662 | 29.47220 | 37993 ft | 459 kts | 340° |
| 2026-04-23 16:03 | 41.37783 | 29.44857 | 37993 ft | 458 kts | 340° |
| 2026-04-23 16:04 | 41.43884 | 29.42522 | 37993 ft | 459 kts | 340° |
| 2026-04-23 16:04 | 41.49984 | 29.40186 | 37989 ft | 459 kts | 340° |
| 2026-04-23 16:05 | 41.55090 | 29.38231 | 37983 ft | 459 kts | 340° |
| 2026-04-23 16:05 | 41.62210 | 29.35500 | 37974 ft | 459 kts | 340° |
| 2026-04-23 16:06 | 41.68322 | 29.33153 | 37972 ft | 458 kts | 340° |
| 2026-04-23 16:06 | 41.74416 | 29.30810 | 37969 ft | 458 kts | 340° |
| 2026-04-23 16:07 | 41.80513 | 29.28460 | 37966 ft | 458 kts | 340° |
| 2026-04-23 16:07 | 41.86612 | 29.26105 | 37966 ft | 458 kts | 340° |
| 2026-04-23 16:08 | 41.92733 | 29.23737 | 37966 ft | 458 kts | 340° |
| 2026-04-23 16:08 | 41.98791 | 29.21389 | 37966 ft | 458 kts | 340° |
| 2026-04-23 16:09 | 42.04915 | 29.19011 | 37966 ft | 458 kts | 340° |
| 2026-04-23 16:09 | 42.10997 | 29.16643 | 37966 ft | 458 kts | 340° |
| 2026-04-23 16:10 | 42.16766 | 29.13298 | 37965 ft | 448 kts | 322° |
| 2026-04-23 16:10 | 42.19190 | 29.10728 | 37966 ft | 441 kts | 311° |
| 2026-04-23 16:10 | 42.21238 | 29.07720 | 37968 ft | 439 kts | 306° |
| 2026-04-23 16:11 | 42.25226 | 29.01489 | 37966 ft | 440 kts | 307° |
| 2026-04-23 16:11 | 42.29284 | 28.95318 | 37966 ft | 441 kts | 307° |
| 2026-04-23 16:12 | 42.33315 | 28.89091 | 37966 ft | 443 kts | 307° |
| 2026-04-23 16:12 | 42.37355 | 28.82830 | 37966 ft | 445 kts | 307° |
| 2026-04-23 16:13 | 42.41419 | 28.76509 | 37954 ft | 446 kts | 308° |
| 2026-04-23 16:13 | 42.47507 | 28.67007 | 37907 ft | 445 kts | 307° |
| 2026-04-23 16:14 | 42.51517 | 28.60727 | 37891 ft | 445 kts | 307° |
| 2026-04-23 16:14 | 42.55550 | 28.54396 | 37885 ft | 445 kts | 307° |
| 2026-04-23 16:15 | 42.59578 | 28.48060 | 37885 ft | 445 kts | 307° |
| 2026-04-23 16:15 | 42.63608 | 28.41706 | 37885 ft | 445 kts | 307° |
| 2026-04-23 16:16 | 42.67619 | 28.35369 | 37885 ft | 445 kts | 307° |
| 2026-04-23 16:16 | 42.71643 | 28.28998 | 37885 ft | 445 kts | 307° |
| 2026-04-23 16:17 | 42.75668 | 28.22611 | 37885 ft | 445 kts | 307° |
| 2026-04-23 16:17 | 42.79668 | 28.16249 | 37885 ft | 445 kts | 307° |
| 2026-04-23 16:18 | 42.83660 | 28.09815 | 37885 ft | 445 kts | 306° |
| 2026-04-23 16:18 | 42.87587 | 28.03341 | 37885 ft | 444 kts | 306° |
| 2026-04-23 16:19 | 42.91557 | 27.96932 | 37885 ft | 444 kts | 307° |
| 2026-04-23 16:19 | 42.95558 | 27.90589 | 37885 ft | 440 kts | 307° |
| 2026-04-23 16:20 | 42.99500 | 27.84263 | 37885 ft | 439 kts | 308° |
| 2026-04-23 16:20 | 43.03440 | 27.77936 | 37885 ft | 438 kts | 308° |
| 2026-04-23 16:21 | 43.07391 | 27.71661 | 37885 ft | 439 kts | 308° |
| 2026-04-23 16:21 | 43.11323 | 27.65349 | 37885 ft | 438 kts | 308° |
| 2026-04-23 16:22 | 43.15280 | 27.59015 | 37885 ft | 438 kts | 308° |
| 2026-04-23 16:22 | 43.19216 | 27.52661 | 37885 ft | 437 kts | 308° |
| 2026-04-23 16:23 | 43.23141 | 27.46316 | 37885 ft | 437 kts | 308° |
| 2026-04-23 16:23 | 43.27045 | 27.39987 | 37379 ft | 436 kts | 308° |
| 2026-04-23 16:24 | 43.28991 | 27.36825 | 36754 ft | 435 kts | 308° |
| 2026-04-23 16:24 | 43.30941 | 27.33657 | 36106 ft | 434 kts | 307° |
| 2026-04-23 16:24 | 43.32883 | 27.30497 | 35456 ft | 433 kts | 307° |
| 2026-04-23 16:24 | 43.34801 | 27.27366 | 34812 ft | 433 kts | 307° |
| 2026-04-23 16:25 | 43.36729 | 27.24226 | 34166 ft | 433 kts | 307° |
| 2026-04-23 16:25 | 43.38671 | 27.21052 | 33514 ft | 433 kts | 308° |
| 2026-04-23 16:25 | 43.40602 | 27.17893 | 32867 ft | 437 kts | 308° |
| 2026-04-23 16:25 | 43.42550 | 27.14693 | 32217 ft | 441 kts | 307° |
| 2026-04-23 16:26 | 43.44513 | 27.11458 | 31569 ft | 445 kts | 307° |
| 2026-04-23 16:26 | 43.46510 | 27.08153 | 30912 ft | 449 kts | 307° |
| 2026-04-23 16:26 | 43.48501 | 27.04844 | 30262 ft | 451 kts | 307° |
| 2026-04-23 16:26 | 43.50499 | 27.01519 | 29610 ft | 453 kts | 308° |
| 2026-04-23 16:27 | 43.52508 | 26.98198 | 28961 ft | 455 kts | 308° |
| 2026-04-23 16:27 | 43.54546 | 26.94854 | 28310 ft | 459 kts | 308° |
| 2026-04-23 16:27 | 43.56587 | 26.91512 | 27663 ft | 461 kts | 308° |
| 2026-04-23 16:27 | 43.58628 | 26.88164 | 27012 ft | 458 kts | 308° |
| 2026-04-23 16:28 | 43.60679 | 26.84790 | 26357 ft | 455 kts | 309° |
| 2026-04-23 16:28 | 43.62701 | 26.81448 | 25707 ft | 454 kts | 308° |
| 2026-04-23 16:28 | 43.64698 | 26.78138 | 25063 ft | 456 kts | 308° |
| 2026-04-23 16:28 | 43.66722 | 26.74777 | 24410 ft | 457 kts | 309° |
| 2026-04-23 16:29 | 43.68729 | 26.71440 | 23762 ft | 454 kts | 308° |
| 2026-04-23 16:29 | 43.70734 | 26.68094 | 23111 ft | 451 kts | 309° |
| 2026-04-23 16:29 | 43.72707 | 26.64781 | 22461 ft | 448 kts | 309° |
| 2026-04-23 16:29 | 43.74668 | 26.61477 | 21810 ft | 445 kts | 309° |
| 2026-04-23 16:30 | 43.76607 | 26.58210 | 21164 ft | 441 kts | 309° |
| 2026-04-23 16:30 | 43.78573 | 26.54921 | 20503 ft | 439 kts | 309° |
| 2026-04-23 16:30 | 43.80499 | 26.51715 | 19857 ft | 436 kts | 309° |
| 2026-04-23 16:30 | 43.82424 | 26.48500 | 19204 ft | 433 kts | 309° |
| 2026-04-23 16:31 | 43.84331 | 26.45300 | 18551 ft | 430 kts | 309° |
| 2026-04-23 16:31 | 43.86213 | 26.42143 | 18037 ft | 423 kts | 310° |
| 2026-04-23 16:31 | 43.88054 | 26.39050 | 17848 ft | 408 kts | 309° |
| 2026-04-23 16:31 | 43.89811 | 26.36085 | 17705 ft | 394 kts | 309° |
| 2026-04-23 16:32 | 43.91515 | 26.33200 | 17567 ft | 380 kts | 309° |
| 2026-04-23 16:32 | 43.93151 | 26.30437 | 17403 ft | 368 kts | 309° |
| 2026-04-23 16:32 | 43.94779 | 26.27690 | 16920 ft | 366 kts | 310° |
| 2026-04-23 16:32 | 43.96612 | 26.25278 | 16416 ft | 364 kts | 325° |
| 2026-04-23 16:33 | 43.98881 | 26.23804 | 15814 ft | 364 kts | 346° |
| 2026-04-23 16:33 | 44.01355 | 26.23501 | 15130 ft | 366 kts | 5° |
| 2026-04-23 16:33 | 44.03849 | 26.24182 | 14439 ft | 367 kts | 18° |
| 2026-04-23 16:33 | 44.06263 | 26.25321 | 14063 ft | 360 kts | 19° |
| 2026-04-23 16:34 | 44.08575 | 26.26384 | 13963 ft | 346 kts | 18° |
| 2026-04-23 16:34 | 44.10796 | 26.27377 | 13855 ft | 332 kts | 19° |
| 2026-04-23 16:34 | 44.12975 | 26.28366 | 13732 ft | 320 kts | 19° |
| 2026-04-23 16:34 | 44.15040 | 26.29310 | 13548 ft | 311 kts | 19° |
| 2026-04-23 16:35 | 44.17083 | 26.30245 | 13229 ft | 307 kts | 19° |
| 2026-04-23 16:35 | 44.19077 | 26.31159 | 12876 ft | 304 kts | 19° |
| 2026-04-23 16:35 | 44.21080 | 26.32078 | 12507 ft | 302 kts | 19° |
| 2026-04-23 16:35 | 44.23058 | 26.32987 | 12136 ft | 300 kts | 19° |
| 2026-04-23 16:36 | 44.25043 | 26.33900 | 11763 ft | 298 kts | 19° |
| 2026-04-23 16:36 | 44.27000 | 26.34801 | 11397 ft | 296 kts | 19° |
| 2026-04-23 16:36 | 44.28950 | 26.35699 | 11027 ft | 294 kts | 19° |
| 2026-04-23 16:36 | 44.30874 | 26.36586 | 10675 ft | 292 kts | 19° |
| 2026-04-23 16:37 | 44.32795 | 26.37473 | 10320 ft | 290 kts | 19° |
| 2026-04-23 16:37 | 44.34696 | 26.38350 | 9955 ft | 288 kts | 19° |
| 2026-04-23 16:37 | 44.36582 | 26.39222 | 9607 ft | 286 kts | 19° |
| 2026-04-23 16:37 | 44.38476 | 26.40097 | 9249 ft | 284 kts | 19° |
| 2026-04-23 16:38 | 44.40329 | 26.40954 | 8873 ft | 284 kts | 19° |
| 2026-04-23 16:38 | 44.42193 | 26.41817 | 8527 ft | 281 kts | 18° |
| 2026-04-23 16:38 | 44.44030 | 26.42668 | 8289 ft | 271 kts | 19° |
| 2026-04-23 16:38 | 44.45777 | 26.43366 | 8082 ft | 256 kts | 8° |
| 2026-04-23 16:39 | 44.47503 | 26.43305 | 7885 ft | 240 kts | 353° |
| 2026-04-23 16:39 | 44.49094 | 26.43046 | 7640 ft | 228 kts | 355° |
| 2026-04-23 16:39 | 44.50677 | 26.42828 | 7129 ft | 227 kts | 355° |
| 2026-04-23 16:39 | 44.52215 | 26.42609 | 6635 ft | 226 kts | 355° |
| 2026-04-23 16:40 | 44.53762 | 26.42388 | 6248 ft | 218 kts | 355° |
| 2026-04-23 16:40 | 44.55212 | 26.42181 | 5990 ft | 205 kts | 354° |
| 2026-04-23 16:40 | 44.56606 | 26.41982 | 5580 ft | 197 kts | 354° |
| 2026-04-23 16:40 | 44.57916 | 26.41794 | 5347 ft | 183 kts | 354° |
| 2026-04-23 16:41 | 44.59101 | 26.41220 | 4896 ft | 183 kts | 322° |
| 2026-04-23 16:41 | 44.59807 | 26.39778 | 4488 ft | 181 kts | 290° |
| 2026-04-23 16:41 | 44.59906 | 26.38043 | 4055 ft | 182 kts | 262° |
| 2026-04-23 16:41 | 44.59730 | 26.36308 | 3731 ft | 181 kts | 265° |
| 2026-04-23 16:42 | 44.59600 | 26.34570 | 3432 ft | 178 kts | 265° |
| 2026-04-23 16:42 | 44.59473 | 26.32847 | 3173 ft | 177 kts | 266° |
| 2026-04-23 16:42 | 44.59348 | 26.31135 | 2924 ft | 179 kts | 266° |
| 2026-04-23 16:42 | 44.59221 | 26.29407 | 2672 ft | 177 kts | 266° |
| 2026-04-23 16:43 | 44.59094 | 26.27681 | 2431 ft | 179 kts | 265° |
| 2026-04-23 16:43 | 44.58966 | 26.25945 | 2181 ft | 176 kts | 266° |
| 2026-04-23 16:43 | 44.58841 | 26.24247 | 1944 ft | 177 kts | 265° |
| 2026-04-23 16:43 | 44.58713 | 26.22518 | 1701 ft | 173 kts | 266° |
| 2026-04-23 16:44 | 44.58596 | 26.20938 | 1466 ft | 154 kts | 266° |
| 2026-04-23 16:44 | 44.58490 | 26.19514 | 1303 ft | 145 kts | 266° |
| 2026-04-23 16:44 | 44.58385 | 26.18092 | 1083 ft | 146 kts | 266° |
| 2026-04-23 16:44 | 44.58282 | 26.16712 | 874 ft | 139 kts | 266° |
| 2026-04-23 16:45 | 44.58183 | 26.15371 | 643 ft | 137 kts | 266° |
| 2026-04-23 16:45 | 44.58080 | 26.14006 | 525 ft | 141 kts | 266° |
| 2026-04-23 16:45 | 44.57982 | 26.12661 | 348 ft | 138 kts | 266° |
| 2026-04-23 16:45 | 44.57888 | 26.11397 | 308 ft | 109 kts | 264° |
| 2026-04-23 16:46 | 44.57830 | 26.10622 | 312 ft | 62 kts | 264° |
| 2026-04-23 16:46 | 44.57790 | 26.10194 | 317 ft | 27 kts | 253° |
| 2026-04-23 16:46 | 44.57735 | 26.10005 | 318 ft | 15 kts | 241° |
| 2026-04-23 16:46 | 44.57682 | 26.09895 | 318 ft | 13 kts | 233° |
| 2026-04-23 16:47 | 44.57618 | 26.09771 | 318 ft | 16 kts | 236° |
| 2026-04-23 16:47 | 44.57579 | 26.09603 | 315 ft | 19 kts | 262° |
| 2026-04-23 16:47 | 44.57565 | 26.09408 | 314 ft | 20 kts | 264° |
| 2026-04-23 16:47 | 44.57549 | 26.09213 | 314 ft | 18 kts | 264° |
| 2026-04-23 16:48 | 44.57538 | 26.09048 | 314 ft | 15 kts | 263° |
| 2026-04-23 16:48 | 44.57526 | 26.08900 | 314 ft | 16 kts | 264° |
| 2026-04-23 16:48 | 44.57513 | 26.08737 | 314 ft | 15 kts | 264° |
| 2026-04-23 16:48 | 44.57503 | 26.08593 | 314 ft | 12 kts | 264° |
| 2026-04-23 16:49 | 44.57496 | 26.08523 | 314 ft | 10 kts | 253° |
| 2026-04-23 16:49 | 44.57396 | 26.08479 | 314 ft | 12 kts | 174° |
| 2026-04-23 16:49 | 44.57314 | 26.08491 | 315 ft | 11 kts | 174° |
| 2026-04-23 16:49 | 44.57247 | 26.08487 | 315 ft | 8 kts | 214° |
| 2026-04-23 16:50 | 44.57230 | 26.08406 | 316 ft | 10 kts | 263° |
| 2026-04-23 16:50 | 44.57220 | 26.08287 | 315 ft | 14 kts | 264° |
| 2026-04-23 16:50 | 44.57212 | 26.08154 | 318 ft | 12 kts | 265° |
| 2026-04-23 16:50 | 44.57204 | 26.08043 | 318 ft | 10 kts | 263° |
| 2026-04-23 16:51 | 44.57199 | 26.07977 | 318 ft | 3 kts | 265° |
| 2026-04-23 16:51 | 44.57204 | 26.07948 | 318 ft | 3 kts | 305° |
| 2026-04-23 16:51 | 44.57230 | 26.07933 | 318 ft | 4 kts | 353° |
| 2026-04-23 16:51 | 44.57254 | 26.07930 | 318 ft | 1 kts | 356° |
| 2026-04-23 16:52 | 44.57256 | 26.07930 | 318 ft | 0 kts | 356° |